Time;durP1;ratioP1;P1;durP2;ratioP2;P2;SDS_P1;SDS_P2;PMS_P1;PMS_P2;Temp;Humidity;BMP_temperature;BMP_pressure;BME280_temperature;BME280_humidity;BME280_pressure;Samples;Min_cycle;Max_cycle;Signal;HPM_P1;HPM_P2
2024/01/31 00:01:36;;;;;;;9.02;2.25;;;;;;;;;;5115091;28;20035;-60
2024/01/31 00:04:01;;;;;;;12.43;2.08;;;;;;;;;;5118218;28;20031;-61
2024/01/31 00:06:27;;;;;;;10.63;2.10;;;;;;;;;;5115436;28;20092;-60
2024/01/31 00:08:52;;;;;;;15.38;2.38;;;;;;;;;;5114869;28;20047;-60
2024/01/31 00:11:19;;;;;;;13.30;3.03;;;;;;;;;;5115369;28;20115;-61
2024/01/31 00:13:44;;;;;;;9.25;1.88;;;;;;;;;;5116959;28;20256;-60
2024/01/31 00:16:10;;;;;;;12.63;2.20;;;;;;;;;;5120550;28;20036;-61
2024/01/31 00:18:35;;;;;;;15.53;2.10;;;;;;;;;;5115059;28;20264;-60
2024/01/31 00:21:01;;;;;;;7.63;1.80;;;;;;;;;;5118233;28;20031;-60
2024/01/31 00:23:27;;;;;;;11.98;2.15;;;;;;;;;;5120240;28;20070;-60
2024/01/31 00:25:52;;;;;;;11.90;1.93;;;;;;;;;;5124930;28;20028;-60
2024/01/31 00:28:17;;;;;;;8.17;2.10;;;;;;;;;;5101859;28;20269;-60
2024/01/31 00:30:44;;;;;;;5.13;1.30;;;;;;;;;;5117352;28;20282;-62
2024/01/31 00:33:10;;;;;;;4.80;1.42;;;;;;;;;;5126591;28;20031;-60
2024/01/31 00:35:35;;;;;;;12.27;1.77;;;;;;;;;;5117734;28;20039;-60
2024/01/31 00:38:01;;;;;;;10.37;1.80;;;;;;;;;;5114556;28;20292;-60
2024/01/31 00:40:26;;;;;;;5.60;1.60;;;;;;;;;;5114567;28;20032;-61
2024/01/31 00:42:52;;;;;;;13.10;2.07;;;;;;;;;;5114605;28;20028;-61
2024/01/31 00:45:18;;;;;;;7.93;2.20;;;;;;;;;;5120620;28;20023;-61
2024/01/31 00:47:43;;;;;;;11.63;2.13;;;;;;;;;;5118642;28;20039;-61
2024/01/31 00:50:12;;;;;;;6.90;1.80;;;;;;;;;;5101437;28;20285;-61
2024/01/31 00:52:38;;;;;;;3.60;1.35;;;;;;;;;;5111165;28;20028;-61
2024/01/31 00:55:03;;;;;;;8.40;1.73;;;;;;;;;;5118820;28;20039;-61
2024/01/31 00:57:29;;;;;;;7.27;1.73;;;;;;;;;;5114835;28;20296;-61
2024/01/31 00:59:55;;;;;;;9.52;1.20;;;;;;;;;;5105705;28;20028;-61
2024/01/31 01:02:20;;;;;;;8.60;1.38;;;;;;;;;;5112256;28;20036;-61
2024/01/31 01:04:46;;;;;;;8.83;1.67;;;;;;;;;;5115789;28;20050;-60
2024/01/31 01:07:12;;;;;;;4.53;1.30;;;;;;;;;;5112143;28;20078;-61
2024/01/31 01:09:37;;;;;;;6.80;1.70;;;;;;;;;;5112678;28;20024;-61
2024/01/31 01:12:03;;;;;;;8.77;1.50;;;;;;;;;;5122019;28;20056;-60
2024/01/31 01:14:28;;;;;;;4.78;1.27;;;;;;;;;;5115657;28;20059;-60
2024/01/31 01:16:53;;;;;;;9.82;1.40;;;;;;;;;;5128362;28;20043;-60
2024/01/31 01:19:19;;;;;;;11.23;1.60;;;;;;;;;;5114526;28;20055;-61
2024/01/31 01:21:44;;;;;;;8.48;1.58;;;;;;;;;;5119423;28;20032;-61
2024/01/31 01:24:10;;;;;;;17.97;1.70;;;;;;;;;;5116426;28;20032;-61
2024/01/31 01:26:39;;;;;;;3.83;1.30;;;;;;;;;;5118032;28;20028;-61
2024/01/31 01:29:04;;;;;;;8.55;1.98;;;;;;;;;;5103934;28;20097;-61
2024/01/31 01:31:30;;;;;;;3.50;1.17;;;;;;;;;;5111144;28;20020;-61
2024/01/31 01:33:55;;;;;;;4.13;1.47;;;;;;;;;;5114423;28;20054;-60
2024/01/31 01:36:21;;;;;;;4.83;1.50;;;;;;;;;;5127596;28;20282;-60
2024/01/31 01:38:47;;;;;;;5.35;1.13;;;;;;;;;;5114415;28;20034;-60
2024/01/31 01:41:12;;;;;;;8.50;2.58;;;;;;;;;;5115415;28;20036;-61
2024/01/31 01:43:39;;;;;;;26.30;9.13;;;;;;;;;;5126269;28;20032;-60
2024/01/31 01:46:14;;;;;;;14.45;3.80;;;;;;;;;;5114218;28;20283;-61
2024/01/31 01:48:40;;;;;;;11.77;2.53;;;;;;;;;;5114213;28;20016;-61
2024/01/31 01:51:05;;;;;;;9.67;1.70;;;;;;;;;;5113997;28;20264;-61
2024/01/31 01:53:33;;;;;;;8.88;1.35;;;;;;;;;;5114791;28;20260;-62
2024/01/31 01:55:58;;;;;;;7.78;1.40;;;;;;;;;;5127608;28;20053;-60
2024/01/31 01:58:24;;;;;;;7.85;1.40;;;;;;;;;;5118101;28;20027;-61
2024/01/31 02:00:50;;;;;;;8.77;1.60;;;;;;;;;;5117815;28;20088;-60
2024/01/31 02:03:16;;;;;;;6.18;1.15;;;;;;;;;;5117994;28;20039;-60
2024/01/31 02:05:44;;;;;;;10.05;1.48;;;;;;;;;;5128214;28;20032;-60
2024/01/31 02:08:10;;;;;;;4.18;1.38;;;;;;;;;;5117759;28;20087;-61
2024/01/31 02:10:35;;;;;;;8.32;1.65;;;;;;;;;;5102150;28;20063;-60
2024/01/31 02:13:01;;;;;;;12.30;2.70;;;;;;;;;;5114765;28;20032;-60
2024/01/31 02:15:26;;;;;;;5.43;1.48;;;;;;;;;;5119524;28;20066;-59
2024/01/31 02:17:52;;;;;;;3.63;1.20;;;;;;;;;;5119601;28;20035;-61
2024/01/31 02:20:18;;;;;;;8.57;1.50;;;;;;;;;;5117560;28;20063;-60
2024/01/31 02:22:45;;;;;;;5.20;1.58;;;;;;;;;;5115474;28;20261;-61
2024/01/31 02:25:11;;;;;;;7.15;1.88;;;;;;;;;;5112619;28;20035;-60
2024/01/31 02:27:37;;;;;;;5.32;1.17;;;;;;;;;;5130723;28;20027;-61
2024/01/31 02:30:03;;;;;;;5.00;1.50;;;;;;;;;;5117431;28;20028;-60
2024/01/31 02:32:28;;;;;;;15.20;2.03;;;;;;;;;;5124645;28;20034;-61
2024/01/31 02:34:53;;;;;;;10.10;2.90;;;;;;;;;;5115054;28;20032;-61
2024/01/31 02:37:19;;;;;;;8.43;1.53;;;;;;;;;;5114681;28;20057;-60
2024/01/31 02:39:44;;;;;;;7.60;1.77;;;;;;;;;;5120522;28;20028;-61
2024/01/31 02:42:10;;;;;;;4.77;1.40;;;;;;;;;;5119257;28;20053;-61
2024/01/31 02:44:36;;;;;;;9.65;1.42;;;;;;;;;;5121132;28;20036;-61
2024/01/31 02:47:01;;;;;;;6.77;1.17;;;;;;;;;;5125126;28;20028;-61
2024/01/31 02:49:26;;;;;;;3.72;1.60;;;;;;;;;;5103921;28;20036;-61
2024/01/31 02:51:52;;;;;;;6.93;1.90;;;;;;;;;;5119804;28;20035;-61
2024/01/31 02:54:18;;;;;;;7.67;1.63;;;;;;;;;;5120413;28;20264;-60
2024/01/31 02:56:43;;;;;;;4.53;1.60;;;;;;;;;;5126388;28;20084;-61
2024/01/31 02:59:09;;;;;;;7.27;2.00;;;;;;;;;;5120611;28;20039;-62
2024/01/31 03:01:36;;;;;;;5.23;1.57;;;;;;;;;;5117166;28;20257;-61
2024/01/31 03:04:01;;;;;;;12.93;2.00;;;;;;;;;;5119988;28;20032;-60
2024/01/31 03:06:27;;;;;;;6.57;1.30;;;;;;;;;;5117736;28;20056;-60
2024/01/31 03:08:52;;;;;;;8.00;1.70;;;;;;;;;;5116097;28;20028;-60
2024/01/31 03:11:18;;;;;;;11.83;2.03;;;;;;;;;;5114569;28;20032;-60
2024/01/31 03:13:43;;;;;;;8.23;1.60;;;;;;;;;;5116190;28;20279;-61
2024/01/31 03:16:09;;;;;;;7.57;1.80;;;;;;;;;;5117378;28;20286;-60
2024/01/31 03:18:34;;;;;;;12.50;2.27;;;;;;;;;;5115865;28;20051;-61
2024/01/31 03:20:59;;;;;;;3.17;1.50;;;;;;;;;;5116525;28;20256;-61
2024/01/31 03:23:25;;;;;;;9.90;2.67;;;;;;;;;;5116159;28;20034;-60
2024/01/31 03:25:51;;;;;;;7.40;2.53;;;;;;;;;;5124336;28;20046;-60
2024/01/31 03:28:16;;;;;;;8.97;2.77;;;;;;;;;;5128631;28;20279;-61
2024/01/31 03:30:42;;;;;;;11.98;3.05;;;;;;;;;;5115951;28;20057;-61
2024/01/31 03:33:07;;;;;;;7.00;2.70;;;;;;;;;;5115859;28;20051;-62
2024/01/31 03:35:33;;;;;;;5.20;1.67;;;;;;;;;;5119066;28;20327;-60
2024/01/31 03:37:58;;;;;;;10.73;3.67;;;;;;;;;;5113337;28;20032;-61
2024/01/31 03:40:24;;;;;;;9.02;2.00;;;;;;;;;;5116112;28;20054;-62
2024/01/31 03:42:49;;;;;;;6.47;3.07;;;;;;;;;;5114948;28;20032;-61
2024/01/31 03:45:15;;;;;;;2.50;1.33;;;;;;;;;;5118934;28;20035;-61
2024/01/31 03:47:40;;;;;;;4.33;1.80;;;;;;;;;;5120429;28;20079;-60
2024/01/31 03:50:06;;;;;;;8.80;1.90;;;;;;;;;;5127379;28;20252;-60
2024/01/31 03:52:32;;;;;;;7.72;1.80;;;;;;;;;;5115569;28;20031;-61
2024/01/31 03:54:58;;;;;;;4.90;1.55;;;;;;;;;;5116323;28;20040;-60
2024/01/31 03:57:23;;;;;;;4.93;1.63;;;;;;;;;;5120638;28;20036;-61
2024/01/31 03:59:49;;;;;;;4.30;2.13;;;;;;;;;;5123292;28;20043;-61
2024/01/31 04:02:14;;;;;;;6.00;1.70;;;;;;;;;;5115001;28;20562;-60
2024/01/31 04:04:40;;;;;;;6.60;1.95;;;;;;;;;;5114515;28;20039;-60
2024/01/31 04:07:05;;;;;;;6.50;1.83;;;;;;;;;;5116665;28;20035;-61
2024/01/31 04:09:31;;;;;;;9.90;1.90;;;;;;;;;;5115112;28;20092;-60
2024/01/31 04:11:56;;;;;;;3.17;1.38;;;;;;;;;;5114326;28;20036;-61
2024/01/31 04:14:22;;;;;;;8.40;1.63;;;;;;;;;;5115239;28;20036;-61
2024/01/31 04:16:47;;;;;;;7.70;1.87;;;;;;;;;;5126402;28;20336;-61
2024/01/31 04:19:13;;;;;;;6.93;2.08;;;;;;;;;;5116144;28;20036;-61
2024/01/31 04:21:38;;;;;;;6.03;2.23;;;;;;;;;;5114999;28;20043;-61
2024/01/31 04:24:04;;;;;;;5.23;1.60;;;;;;;;;;5122223;28;20292;-61
2024/01/31 04:26:29;;;;;;;12.27;2.90;;;;;;;;;;5117719;28;20264;-61
2024/01/31 04:28:55;;;;;;;13.10;2.27;;;;;;;;;;5115026;28;20028;-61
2024/01/31 04:31:20;;;;;;;4.20;1.87;;;;;;;;;;5114886;28;20260;-60
2024/01/31 04:33:46;;;;;;;5.22;1.85;;;;;;;;;;5114644;28;20039;-60
2024/01/31 04:36:11;;;;;;;7.17;2.17;;;;;;;;;;5121476;28;20058;-60
2024/01/31 04:38:37;;;;;;;3.73;2.07;;;;;;;;;;5118704;28;20271;-60
2024/01/31 04:41:03;;;;;;;10.07;2.00;;;;;;;;;;5121493;28;20055;-61
2024/01/31 04:43:28;;;;;;;6.38;2.08;;;;;;;;;;5102768;28;20020;-60
2024/01/31 04:45:54;;;;;;;10.77;3.40;;;;;;;;;;5117929;28;20088;-60
2024/01/31 04:48:20;;;;;;;10.25;3.30;;;;;;;;;;5114735;28;20058;-61
2024/01/31 04:50:46;;;;;;;9.47;3.73;;;;;;;;;;5119579;28;20036;-61
2024/01/31 04:53:11;;;;;;;14.50;3.72;;;;;;;;;;5100638;28;20055;-62
2024/01/31 04:55:36;;;;;;;7.50;2.90;;;;;;;;;;5114845;28;20036;-61
2024/01/31 04:58:02;;;;;;;8.13;3.63;;;;;;;;;;5118020;28;20738;-61
2024/01/31 05:00:28;;;;;;;10.17;3.77;;;;;;;;;;5114671;28;20036;-61
2024/01/31 05:02:53;;;;;;;8.95;3.72;;;;;;;;;;5114868;28;20336;-61
2024/01/31 05:05:22;;;;;;;9.30;3.30;;;;;;;;;;5114737;28;20061;-61
2024/01/31 05:07:47;;;;;;;8.15;3.70;;;;;;;;;;5103023;28;20027;-61
2024/01/31 05:10:13;;;;;;;9.07;3.87;;;;;;;;;;5115373;28;20096;-61
2024/01/31 05:12:38;;;;;;;10.18;3.70;;;;;;;;;;5114364;28;20040;-60
2024/01/31 05:15:04;;;;;;;5.57;3.73;;;;;;;;;;5114725;28;20036;-61
2024/01/31 05:17:30;;;;;;;;;;;;;;;;;;5118547;28;20032;-60
2024/01/31 05:19:55;;;;;;;6.30;3.30;;;;;;;;;;5104787;28;19907;-60
2024/01/31 05:22:21;;;;;;;9.00;3.73;;;;;;;;;;5114484;28;20118;-62
2024/01/31 05:24:46;;;;;;;14.40;3.63;;;;;;;;;;5113802;28;20285;-60
2024/01/31 05:27:12;;;;;;;10.80;3.92;;;;;;;;;;5115908;28;20034;-61
2024/01/31 05:29:38;;;;;;;12.93;3.53;;;;;;;;;;5117534;28;20035;-61
2024/01/31 05:32:04;;;;;;;8.77;3.50;;;;;;;;;;5118396;28;20032;-61
2024/01/31 05:34:29;;;;;;;9.95;3.97;;;;;;;;;;5117951;28;20487;-60
2024/01/31 05:36:54;;;;;;;12.90;3.73;;;;;;;;;;5118160;28;20062;-61
2024/01/31 05:39:20;;;;;;;9.70;3.90;;;;;;;;;;5119916;28;20043;-62
2024/01/31 05:41:46;;;;;;;16.17;3.33;;;;;;;;;;5117970;28;20032;-61
2024/01/31 05:44:11;;;;;;;12.67;3.53;;;;;;;;;;5129295;28;20040;-60
2024/01/31 05:46:37;;;;;;;9.23;3.63;;;;;;;;;;5118981;28;20079;-61
2024/01/31 05:49:02;;;;;;;9.17;3.10;;;;;;;;;;5117955;28;20042;-61
2024/01/31 05:51:28;;;;;;;12.00;3.57;;;;;;;;;;5123150;28;20291;-61
2024/01/31 05:53:54;;;;;;;10.15;3.30;;;;;;;;;;5110439;28;20032;-61
2024/01/31 05:56:20;;;;;;;8.85;3.22;;;;;;;;;;5121195;28;20027;-61
2024/01/31 05:58:46;;;;;;;9.63;3.83;;;;;;;;;;5124735;28;20058;-60
2024/01/31 06:01:11;;;;;;;19.33;6.50;;;;;;;;;;5117603;28;20043;-61
2024/01/31 06:03:37;;;;;;;15.67;6.43;;;;;;;;;;5123063;28;20027;-61
2024/01/31 06:06:02;;;;;;;13.57;5.13;;;;;;;;;;5119666;28;20289;-61
2024/01/31 06:08:28;;;;;;;13.32;5.45;;;;;;;;;;5125472;28;20028;-60
2024/01/31 06:10:58;;;;;;;8.45;4.22;;;;;;;;;;5120367;28;20036;-61
2024/01/31 06:13:24;;;;;;;11.40;5.30;;;;;;;;;;5120946;28;20072;-61
2024/01/31 06:15:50;;;;;;;17.88;5.68;;;;;;;;;;5117706;28;20032;-61
2024/01/31 06:18:16;;;;;;;14.02;5.07;;;;;;;;;;5124473;28;20051;-61
2024/01/31 06:20:43;;;;;;;14.18;6.28;;;;;;;;;;5122752;28;20042;-61
2024/01/31 06:23:10;;;;;;;16.02;6.95;;;;;;;;;;5123945;28;20042;-62
2024/01/31 06:25:35;;;;;;;16.20;6.95;;;;;;;;;;5103762;28;20032;-61
2024/01/31 06:28:01;;;;;;;21.85;8.55;;;;;;;;;;5108667;28;20044;-62
2024/01/31 06:30:31;;;;;;;16.53;7.87;;;;;;;;;;5113603;28;20024;-60
2024/01/31 06:33:05;;;;;;;24.05;8.10;;;;;;;;;;5117262;28;20028;-61
2024/01/31 06:35:32;;;;;;;22.45;10.18;;;;;;;;;;5115665;28;20043;-61
2024/01/31 06:37:58;;;;;;;19.83;9.60;;;;;;;;;;5117533;28;20035;-61
2024/01/31 06:40:24;;;;;;;21.50;8.90;;;;;;;;;;5116858;28;20032;-61
2024/01/31 06:42:49;;;;;;;21.40;9.27;;;;;;;;;;5116297;28;20288;-61
2024/01/31 06:45:15;;;;;;;21.47;9.10;;;;;;;;;;5127494;28;20039;-61
2024/01/31 06:47:40;;;;;;;24.53;9.73;;;;;;;;;;5108482;28;20261;-61
2024/01/31 06:50:06;;;;;;;17.00;9.10;;;;;;;;;;5116460;28;20264;-61
2024/01/31 06:52:31;;;;;;;18.43;9.90;;;;;;;;;;5108302;28;20059;-60
2024/01/31 06:54:57;;;;;;;30.67;11.23;;;;;;;;;;5107306;28;20029;-61
2024/01/31 06:57:22;;;;;;;26.30;11.10;;;;;;;;;;5101944;28;20058;-61
2024/01/31 06:59:48;;;;;;;21.57;9.40;;;;;;;;;;5110792;28;20470;-60
2024/01/31 07:02:13;;;;;;;27.85;11.80;;;;;;;;;;5115919;28;20035;-63
2024/01/31 07:04:39;;;;;;;25.20;10.53;;;;;;;;;;5107932;28;20032;-61
2024/01/31 07:07:04;;;;;;;19.90;11.33;;;;;;;;;;5115845;28;20026;-61
2024/01/31 07:09:32;;;;;;;19.67;10.20;;;;;;;;;;5107542;28;20031;-61
2024/01/31 07:11:58;;;;;;;19.98;10.68;;;;;;;;;;5117478;28;20024;-61
2024/01/31 07:14:23;;;;;;;22.13;10.47;;;;;;;;;;5114482;28;20046;-61
2024/01/31 07:16:49;;;;;;;28.30;11.20;;;;;;;;;;5109634;28;20259;-60
2024/01/31 07:19:14;;;;;;;29.63;12.03;;;;;;;;;;5107601;28;20024;-61
2024/01/31 07:21:40;;;;;;;22.50;9.00;;;;;;;;;;5115310;28;20292;-61
2024/01/31 07:24:05;;;;;;;27.83;12.03;;;;;;;;;;5119874;28;20043;-61
2024/01/31 07:26:31;;;;;;;27.25;11.20;;;;;;;;;;5101859;28;20518;-61
2024/01/31 07:28:56;;;;;;;24.27;11.00;;;;;;;;;;5121107;28;20036;-61
2024/01/31 07:31:22;;;;;;;27.73;12.55;;;;;;;;;;5114474;28;20053;-62
2024/01/31 07:33:47;;;;;;;23.60;10.97;;;;;;;;;;5119423;28;20066;-60
2024/01/31 07:36:14;;;;;;;27.30;10.60;;;;;;;;;;5107946;28;20032;-60
2024/01/31 07:38:43;;;;;;;21.58;10.60;;;;;;;;;;5125317;28;20055;-61
2024/01/31 07:41:10;;;;;;;20.80;10.45;;;;;;;;;;5107068;28;20043;-61
2024/01/31 07:43:35;;;;;;;31.05;11.00;;;;;;;;;;5111795;28;20020;-62
2024/01/31 07:46:00;;;;;;;19.48;10.20;;;;;;;;;;5108200;28;20097;-61
2024/01/31 07:48:26;;;;;;;23.13;11.05;;;;;;;;;;5120521;28;20024;-61
2024/01/31 07:50:52;;;;;;;20.37;9.87;;;;;;;;;;5112397;28;20052;-61
2024/01/31 07:53:17;;;;;;;22.83;10.33;;;;;;;;;;5115430;28;20269;-61
2024/01/31 07:55:43;;;;;;;20.40;9.95;;;;;;;;;;5110521;28;20040;-61
2024/01/31 07:58:08;;;;;;;16.80;9.10;;;;;;;;;;5104380;28;20036;-61
2024/01/31 08:00:34;;;;;;;19.30;9.50;;;;;;;;;;5112303;28;20084;-61
2024/01/31 08:02:59;;;;;;;21.00;11.33;;;;;;;;;;5117979;28;20036;-62
2024/01/31 08:05:25;;;;;;;21.20;9.73;;;;;;;;;;5114926;28;20122;-61
2024/01/31 08:07:50;;;;;;;19.30;9.52;;;;;;;;;;5117323;28;20020;-61
2024/01/31 08:10:16;;;;;;;19.53;9.00;;;;;;;;;;5114852;28;20024;-61
2024/01/31 08:12:42;;;;;;;17.50;8.97;;;;;;;;;;5108469;28;20328;-61
2024/01/31 08:15:08;;;;;;;18.98;8.85;;;;;;;;;;5114737;28;20055;-62
2024/01/31 08:17:34;;;;;;;19.87;9.63;;;;;;;;;;5104633;28;20054;-62
2024/01/31 08:19:59;;;;;;;20.93;8.43;;;;;;;;;;5112869;28;20059;-61
2024/01/31 08:22:25;;;;;;;20.13;8.38;;;;;;;;;;5109293;28;20031;-62
2024/01/31 08:24:50;;;;;;;18.47;8.97;;;;;;;;;;5114738;28;20051;-61
2024/01/31 08:27:18;;;;;;;18.88;9.65;;;;;;;;;;5110107;28;20087;-61
2024/01/31 08:29:44;;;;;;;15.40;8.10;;;;;;;;;;5114627;28;20028;-61
2024/01/31 08:32:09;;;;;;;17.95;8.80;;;;;;;;;;5112391;28;20042;-61
2024/01/31 08:34:34;;;;;;;17.50;9.20;;;;;;;;;;5123915;28;20027;-62
2024/01/31 08:37:00;;;;;;;23.33;11.33;;;;;;;;;;5110019;28;20048;-62
2024/01/31 08:39:25;;;;;;;21.98;9.07;;;;;;;;;;5116221;28;20036;-61
2024/01/31 08:41:51;;;;;;;24.73;9.20;;;;;;;;;;5107392;28;20036;-61
2024/01/31 08:44:16;;;;;;;19.40;9.23;;;;;;;;;;5116281;28;20291;-61
2024/01/31 08:46:42;;;;;;;17.95;8.07;;;;;;;;;;5100840;28;20032;-61
2024/01/31 08:49:07;;;;;;;16.27;8.23;;;;;;;;;;5122555;28;20054;-61
2024/01/31 08:51:35;;;;;;;12.33;6.60;;;;;;;;;;5114379;28;20295;-61
2024/01/31 08:54:01;;;;;;;15.07;7.68;;;;;;;;;;5128893;28;20025;-61
2024/01/31 08:56:28;;;;;;;18.13;8.33;;;;;;;;;;5110186;28;20033;-61
2024/01/31 08:58:53;;;;;;;10.90;6.33;;;;;;;;;;5116539;28;20264;-61
2024/01/31 09:01:18;;;;;;;13.50;6.80;;;;;;;;;;5107664;28;20273;-61
2024/01/31 09:03:44;;;;;;;19.77;8.10;;;;;;;;;;5124263;28;20024;-61
2024/01/31 09:06:09;;;;;;;24.80;8.33;;;;;;;;;;5121827;28;20024;-62
2024/01/31 09:08:34;;;;;;;14.60;7.68;;;;;;;;;;5116949;28;20027;-61
2024/01/31 09:11:00;;;;;;;18.93;8.70;;;;;;;;;;5110068;28;20036;-61
2024/01/31 09:13:25;;;;;;;18.40;8.23;;;;;;;;;;5121523;28;20020;-61
2024/01/31 09:15:51;;;;;;;17.27;7.47;;;;;;;;;;5118321;28;20040;-61
2024/01/31 09:18:16;;;;;;;14.93;8.03;;;;;;;;;;5113466;28;20263;-60
2024/01/31 09:20:42;;;;;;;12.83;7.50;;;;;;;;;;5108533;28;20297;-60
2024/01/31 09:23:08;;;;;;;13.40;6.80;;;;;;;;;;5110785;28;20057;-61
2024/01/31 09:25:34;;;;;;;18.38;7.72;;;;;;;;;;5109035;28;20040;-61
2024/01/31 09:27:59;;;;;;;20.50;8.43;;;;;;;;;;5100945;28;20044;-61
2024/01/31 09:30:25;;;;;;;16.92;7.85;;;;;;;;;;5117591;28;20029;-61
2024/01/31 09:32:50;;;;;;;18.37;7.30;;;;;;;;;;5113616;28;20035;-62
2024/01/31 09:35:16;;;;;;;16.83;8.10;;;;;;;;;;5112026;28;20033;-62
2024/01/31 09:37:41;;;;;;;28.40;10.05;;;;;;;;;;5110179;28;20060;-61
2024/01/31 09:40:07;;;;;;;19.40;9.40;;;;;;;;;;5129309;28;20040;-62
2024/01/31 09:42:33;;;;;;;20.88;9.82;;;;;;;;;;5117566;28;20062;-62
2024/01/31 09:44:59;;;;;;;19.00;10.03;;;;;;;;;;5109211;28;20032;-62
2024/01/31 09:47:25;;;;;;;;;;;;;;;;;;5118283;28;20020;-61
2024/01/31 09:49:50;;;;;;;26.50;11.17;;;;;;;;;;5122127;28;19931;-61
2024/01/31 09:52:18;;;;;;;29.33;11.83;;;;;;;;;;5116704;28;20095;-61
2024/01/31 09:54:44;;;;;;;27.00;11.00;;;;;;;;;;5106735;28;20032;-61
2024/01/31 09:57:09;;;;;;;26.95;11.48;;;;;;;;;;5104673;28;20269;-60
2024/01/31 09:59:35;;;;;;;27.33;12.40;;;;;;;;;;5121939;28;20058;-62
2024/01/31 10:02:00;;;;;;;30.43;12.40;;;;;;;;;;5117407;28;20024;-62
2024/01/31 10:04:26;;;;;;;33.13;13.27;;;;;;;;;;5116284;28;20051;-62
2024/01/31 10:06:51;;;;;;;33.10;13.53;;;;;;;;;;5120502;28;20050;-61
2024/01/31 10:09:17;;;;;;;39.70;16.07;;;;;;;;;;5122547;28;20028;-61
2024/01/31 10:11:49;;;;;;;24.17;12.20;;;;;;;;;;5117365;28;20059;-61
2024/01/31 10:14:15;;;;;;;30.03;14.40;;;;;;;;;;5116002;28;20032;-61
2024/01/31 10:16:41;;;;;;;34.07;15.03;;;;;;;;;;5116982;28;20291;-61
2024/01/31 10:19:06;;;;;;;44.47;16.45;;;;;;;;;;5116348;28;20028;-61
2024/01/31 10:21:32;;;;;;;40.67;16.38;;;;;;;;;;5116899;28;20069;-60
2024/01/31 10:24:02;;;;;;;40.53;16.17;;;;;;;;;;5116545;28;20036;-61
2024/01/31 10:26:28;;;;;;;38.93;16.67;;;;;;;;;;5117017;28;20035;-61
2024/01/31 10:28:54;;;;;;;40.77;17.00;;;;;;;;;;5116920;28;20257;-61
2024/01/31 10:31:20;;;;;;;43.33;17.57;;;;;;;;;;5116960;28;20024;-61
2024/01/31 10:33:46;;;;;;;46.72;18.05;;;;;;;;;;5119398;28;20031;-61
2024/01/31 10:36:12;;;;;;;;;;;;;;;;;;5120318;28;20032;-61
2024/01/31 10:38:39;;;;;;;42.90;17.10;;;;;;;;;;5116005;28;19922;-60
2024/01/31 10:41:06;;;;;;;;;;;;;;;;;;5116906;28;20036;-61
2024/01/31 10:43:32;;;;;;;47.55;17.63;;;;;;;;;;5100707;28;19911;-61
2024/01/31 10:45:57;;;;;;;42.10;18.10;;;;;;;;;;5116002;28;20036;-60
2024/01/31 10:48:23;;;;;;;45.47;19.00;;;;;;;;;;5118764;28;20165;-60
2024/01/31 10:50:50;;;;;;;49.35;18.23;;;;;;;;;;5124512;28;20031;-61
2024/01/31 10:53:17;;;;;;;50.13;17.57;;;;;;;;;;5115901;28;20092;-61
2024/01/31 10:55:42;;;;;;;;;;;;;;;;;;5119793;28;20289;-61
2024/01/31 10:58:09;;;;;;;47.97;18.58;;;;;;;;;;5116658;27;20007;-61
2024/01/31 11:00:35;;;;;;;50.97;18.87;;;;;;;;;;5110745;28;20025;-61
2024/01/31 11:03:03;;;;;;;45.57;19.30;;;;;;;;;;5114381;28;20282;-61
2024/01/31 11:05:29;;;;;;;51.97;19.10;;;;;;;;;;5115350;28;20054;-61
2024/01/31 11:07:55;;;;;;;50.63;19.42;;;;;;;;;;5115687;28;20293;-61
2024/01/31 11:10:22;;;;;;;53.42;19.75;;;;;;;;;;5120964;28;20024;-60
2024/01/31 11:13:00;;;;;;;47.70;18.67;;;;;;;;;;5110179;28;20029;-61
2024/01/31 11:15:30;;;;;;;45.38;18.77;;;;;;;;;;5120684;28;20273;-61
2024/01/31 11:18:05;;;;;;;43.17;18.27;;;;;;;;;;5114038;28;20032;-61
2024/01/31 11:20:31;;;;;;;40.43;16.83;;;;;;;;;;5117777;28;20261;-61
2024/01/31 11:22:58;;;;;;;41.30;17.00;;;;;;;;;;5115403;28;20272;-62
2024/01/31 11:25:24;;;;;;;;;;;;;;;;;;5121535;28;20300;-60
2024/01/31 11:27:49;;;;;;;43.73;16.50;;;;;;;;;;5115757;28;19929;-60
2024/01/31 11:30:14;;;;;;;37.90;15.80;;;;;;;;;;5118674;28;20019;-61
2024/01/31 11:32:39;;;;;;;40.13;15.90;;;;;;;;;;5107028;28;20028;-60
2024/01/31 11:35:05;;;;;;;35.90;16.63;;;;;;;;;;5110325;28;20043;-60
2024/01/31 11:37:30;;;;;;;39.77;17.07;;;;;;;;;;5105058;28;20047;-60
2024/01/31 11:39:56;;;;;;;39.28;16.20;;;;;;;;;;5105364;28;20034;-61
2024/01/31 11:42:21;;;;;;;44.63;17.10;;;;;;;;;;5110746;28;20039;-60
2024/01/31 11:44:47;;;;;;;35.30;14.27;;;;;;;;;;5103689;28;20032;-61
2024/01/31 11:47:12;;;;;;;33.80;13.90;;;;;;;;;;5109645;28;20023;-61
2024/01/31 11:49:38;;;;;;;33.30;14.77;;;;;;;;;;5111598;28;20109;-61
2024/01/31 11:52:03;;;;;;;37.53;15.35;;;;;;;;;;5109335;28;20127;-61
2024/01/31 11:54:29;;;;;;;38.80;15.80;;;;;;;;;;5108209;28;20032;-61
2024/01/31 11:56:55;;;;;;;39.05;14.48;;;;;;;;;;5107350;28;20051;-62
2024/01/31 11:59:21;;;;;;;21.83;10.95;;;;;;;;;;5107514;28;20031;-61
2024/01/31 12:01:46;;;;;;;19.23;10.67;;;;;;;;;;5111300;28;20107;-60
2024/01/31 12:04:12;;;;;;;23.47;10.70;;;;;;;;;;5111644;28;20032;-62
2024/01/31 12:06:37;;;;;;;23.03;11.33;;;;;;;;;;5112407;28;20032;-60
2024/01/31 12:09:02;;;;;;;30.47;12.33;;;;;;;;;;5111565;28;20040;-61
2024/01/31 12:11:28;;;;;;;30.07;13.60;;;;;;;;;;5111473;28;20039;-61
2024/01/31 12:13:53;;;;;;;25.05;10.75;;;;;;;;;;5109137;28;20059;-61
2024/01/31 12:16:19;;;;;;;25.70;12.15;;;;;;;;;;5107955;28;20720;-61
2024/01/31 12:18:44;;;;;;;26.60;12.47;;;;;;;;;;5108437;28;20016;-62
2024/01/31 12:21:12;;;;;;;31.50;13.47;;;;;;;;;;5117087;28;20023;-61
2024/01/31 12:23:38;;;;;;;30.30;14.63;;;;;;;;;;5111481;28;20048;-61
2024/01/31 12:26:04;;;;;;;26.95;11.75;;;;;;;;;;5113428;28;20280;-61
2024/01/31 12:28:29;;;;;;;25.27;11.50;;;;;;;;;;5111045;28;20033;-59
2024/01/31 12:30:56;;;;;;;19.57;10.30;;;;;;;;;;5117904;28;20059;-61
2024/01/31 12:33:22;;;;;;;21.77;10.97;;;;;;;;;;5101915;28;20034;-61
2024/01/31 12:35:48;;;;;;;18.73;9.77;;;;;;;;;;5105276;28;20272;-62
2024/01/31 12:38:13;;;;;;;18.48;9.60;;;;;;;;;;5110922;28;20028;-60
2024/01/31 12:40:39;;;;;;;21.20;10.63;;;;;;;;;;5106211;28;20067;-61
2024/01/31 12:43:05;;;;;;;18.52;9.68;;;;;;;;;;5099084;28;20249;-60
2024/01/31 12:45:31;;;;;;;14.27;8.97;;;;;;;;;;5105252;28;20084;-61
2024/01/31 12:47:56;;;;;;;;;;;;;;;;;;5112653;28;20043;-62
2024/01/31 12:50:22;;;;;;;15.93;8.13;;;;;;;;;;5105121;28;19908;-60
2024/01/31 12:52:47;;;;;;;19.17;9.83;;;;;;;;;;5110810;28;20039;-59
2024/01/31 12:55:13;;;;;;;16.30;9.10;;;;;;;;;;5105436;28;20035;-61
2024/01/31 12:57:39;;;;;;;20.15;10.07;;;;;;;;;;5103451;28;20032;-60
2024/01/31 13:00:04;;;;;;;17.27;9.87;;;;;;;;;;5107522;28;20044;-60
2024/01/31 13:02:30;;;;;;;18.83;9.55;;;;;;;;;;5108792;28;20138;-61
2024/01/31 13:04:55;;;;;;;19.30;9.97;;;;;;;;;;5105796;28;20040;-59
2024/01/31 13:07:21;;;;;;;16.50;8.67;;;;;;;;;;5103582;28;20258;-60
2024/01/31 13:09:46;;;;;;;12.27;7.20;;;;;;;;;;5109731;28;20244;-60
2024/01/31 13:12:12;;;;;;;21.17;7.23;;;;;;;;;;5108338;28;20032;-61
2024/01/31 13:14:38;;;;;;;14.20;7.45;;;;;;;;;;5095165;28;20257;-60
2024/01/31 13:17:04;;;;;;;13.13;7.75;;;;;;;;;;5107877;28;20063;-60
2024/01/31 13:19:29;;;;;;;13.18;7.95;;;;;;;;;;5118389;28;20091;-61
2024/01/31 13:21:54;;;;;;;11.57;7.30;;;;;;;;;;5106313;28;20036;-60
2024/01/31 13:24:20;;;;;;;11.07;6.50;;;;;;;;;;5105339;28;20316;-61
2024/01/31 13:26:45;;;;;;;13.43;6.88;;;;;;;;;;5109967;28;20115;-60
2024/01/31 13:29:11;;;;;;;11.52;6.78;;;;;;;;;;5098290;28;20033;-61
2024/01/31 13:31:36;;;;;;;13.73;7.67;;;;;;;;;;5099323;28;20104;-58
2024/01/31 13:34:02;;;;;;;13.03;6.43;;;;;;;;;;5096314;28;20043;-58
2024/01/31 13:36:28;;;;;;;13.30;7.20;;;;;;;;;;5111129;28;20020;-61
2024/01/31 13:38:54;;;;;;;13.90;5.80;;;;;;;;;;5106826;28;20052;-60
2024/01/31 13:41:22;;;;;;;12.75;5.43;;;;;;;;;;5102075;28;20048;-60
2024/01/31 13:43:49;;;;;;;13.50;6.87;;;;;;;;;;5100463;28;20052;-60
2024/01/31 13:46:15;;;;;;;12.07;5.97;;;;;;;;;;5115765;28;20253;-60
2024/01/31 13:48:40;;;;;;;7.80;4.70;;;;;;;;;;5122177;28;20287;-60
2024/01/31 13:51:05;;;;;;;12.10;5.60;;;;;;;;;;5107142;28;20283;-60
2024/01/31 13:53:31;;;;;;;10.23;4.53;;;;;;;;;;5111380;28;20032;-60
2024/01/31 13:55:56;;;;;;;15.07;4.83;;;;;;;;;;5107549;28;20032;-59
2024/01/31 13:58:22;;;;;;;8.60;5.30;;;;;;;;;;5109753;28;20085;-58
2024/01/31 14:00:48;;;;;;;8.27;4.80;;;;;;;;;;5122776;28;20044;-59
2024/01/31 14:03:13;;;;;;;7.27;3.53;;;;;;;;;;5117028;28;20058;-59
2024/01/31 14:05:39;;;;;;;7.80;3.38;;;;;;;;;;5104583;28;20091;-60
2024/01/31 14:08:06;;;;;;;10.67;3.53;;;;;;;;;;5116583;28;20024;-60
2024/01/31 14:10:32;;;;;;;8.07;3.17;;;;;;;;;;5107641;28;20054;-57
2024/01/31 14:12:57;;;;;;;9.67;3.37;;;;;;;;;;5113407;28;20257;-60
2024/01/31 14:15:23;;;;;;;5.93;2.90;;;;;;;;;;5105930;28;20280;-61
2024/01/31 14:17:50;;;;;;;11.00;3.15;;;;;;;;;;5116325;28;20043;-60
2024/01/31 14:20:15;;;;;;;8.33;3.27;;;;;;;;;;5121517;28;20031;-60
2024/01/31 14:22:41;;;;;;;10.65;3.50;;;;;;;;;;5116368;28;20338;-60
2024/01/31 14:25:06;;;;;;;5.13;2.87;;;;;;;;;;5102403;28;20098;-60